Сочи

Карта отелей и гостиниц, располагающихся рядом с аэропортом Сочи :

Сочи Краснодарский край 43° 26' 40.2" N, 39° 56' 55.7412" E
Код аэродрома ИКАО
URSS
Код аэродрома RU
УРСС
Координаты
N43.44450° E039.94882°
Превышение над уровнем моря
27
Основная полоса
06/24
Курс магнитный
058,1/238,1
Длина основной ВПП
2950
Ширина основной ВПП
45
Покрытие основной ВПП
Твёрдое (цементобетон)
Освещение ВПП
Постоянное
Тип: 
Аэродром
Класс аэродрома: 
Международный
Принадлежность: 
ГА
Статус: 
Действующий
Сайт: 
http://www.basel.aero/sochi/
E-mail аэродрома: 
dis_p@sochi.ru
Страна: 
Россия
Регион: 
Краснодарский край
Дополнительная информация: 
Горный. Оператор: ОАО «Междунаро?дный аэропо?рт Со?чи». Входит в аэропортовый холдинг "Базэл Аэро". Совместного базирования. Федерального значения. Нкр.=(600)м. Военный индекс: XRSS / ЬРСС.
Погода: 

Авиационная погода в Сочи

Регион: 
Погода METAR: 
URSS 271500Z 27002MPS 9999 NSC 08/02 Q1020 R06/010070 R02/010070 NOSIG RMK R02/26001MPS QFE764
Время наблюдения
2021-02-27T15:00:00Z
Температура C
8.0
Точка росы
2.0
Направление ветра
270
Скорость ветра (узлы)
4
Метео видимость
6.21
Явления погоды
Условия полета
VFR
Аэропорт подробнее: 

Найти трансфер

С помощью этой формы Вы можете найти трансфер из аэропорта Сочи в город, аэропорт или вокзал:

Карта места

Javascript is required to view this map.

Погода в аэропортах:

Авиационная погода в Берлевоге

Регион: 
Погода METAR: 
ENBV 262050Z 30020KT 9999 -SHSN FEW012 BKN020 01/M03 Q1007
Время наблюдения
2021-02-26T20:50:00Z
Температура C
1.0
Точка росы
-3.0
Направление ветра
300
Скорость ветра (узлы)
20
Метео видимость
6.21
Явления погоды
-SHSN
Условия полета
MVFR

Авиационная погода в Нижнекамске

Регион: 
Погода METAR: 
UWKE 271500Z 04006MPS 4800 -SN OVC028 M12/M13 Q0998 R03/421040 NOSIG RMK QFE732/0976
Время наблюдения
2021-02-27T15:00:00Z
Температура C
-12.0
Точка росы
-13.0
Направление ветра
40
Скорость ветра (узлы)
12
Метео видимость
2.98
Явления погоды
-SN
Условия полета
IFR
Аэропорт подробнее: 

Авиационная погода в Минске

Регион: 
Погода METAR: 
UMMS 271439Z 32007G10MPS 6000 -RA BKN008 BKN017 02/01 Q1019 R31R/290050 R31L/////// NOSIG
Время наблюдения
2021-02-27T14:39:00Z
Температура C
2.0
Точка росы
1.0
Направление ветра
320
Скорость ветра (узлы)
14
Метео видимость
3.73
Явления погоды
-RA
Условия полета
IFR
Аэропорт подробнее: 

Авиационная погода в Уральске

Регион: 
Погода METAR: 
UARR 271500Z 23006MPS 0400 R22/1100D FG VV002 00/00 Q1001 R22/590145 NOSIG RMK QBB070 QFE747/0997
Время наблюдения
2021-02-27T15:00:00Z
Температура C
0.0
Точка росы
0.0
Направление ветра
230
Скорость ветра (узлы)
12
Метео видимость
0.25
Явления погоды
FG
Условия полета
LIFR
Аэропорт подробнее: